Main page
METAR-TAF:

METAR-TAF

Airports :

Valence, France

Valence-Chabeuil Airport

latitude: 44-54-58N, longitude: 4-58-06E, elevation: 160 m

Current weather observation

The report was made 1 hour and 12 minutes ago, at 18:00 UTC
Wind 6 kt from the Southwest, varying between South and West/Northwest
Temperature 18°C
Humidity 83%
Pressure 1018 hPa
Visibility 10 km or more
thunderstorm, rain

METAR: LFLU 231800Z AUTO 23006KT 190V290 9999 TSRA OVC090/// ///CB 18/15 Q1018

Time: 21:12 (19:12 UTC)


TAF: missing

Weather observations and forecasts of more than 4000 airports (METAR and TAF reports).

The available stations are represented by yellow and red dots on the map.

Hover mouse over dot to see the name of the station.

Then click to see weather observations and forecasts.

To change the map : click on the green buttons with a black cross to zoom in, on the green button with a dash to zoom out, or on the green arrows for adjacent maps.


METAR-TAF: